Time;durP1;ratioP1;P1;durP2;ratioP2;P2;SDS_P1;SDS_P2;PMS_P1;PMS_P2;Temp;Humidity;BMP_temperature;BMP_pressure;BME280_temperature;BME280_humidity;BME280_pressure;Samples;Min_cycle;Max_cycle;Signal;HPM_P1;HPM_P2
2021/03/07 00:00:48;;;;;;;5.20;2.08;;;1.40;85.80;;;;;;5000597;28;20028;-66
2021/03/07 00:03:13;;;;;;;4.75;2.13;;;1.50;84.80;;;;;;5004986;28;20052;-66
2021/03/07 00:05:39;;;;;;;6.38;2.63;;;1.50;84.40;;;;;;5001320;28;20037;-66
2021/03/07 00:08:05;;;;;;;6.53;1.80;;;1.50;84.10;;;;;;4995407;28;20033;-66
2021/03/07 00:10:30;;;;;;;7.63;2.05;;;1.50;84.30;;;;;;5000462;28;20065;-66
2021/03/07 00:12:57;;;;;;;10.07;2.15;;;1.50;84.40;;;;;;4993311;28;20030;-66
2021/03/07 00:15:23;;;;;;;4.68;1.67;;;1.50;84.10;;;;;;4999806;28;20034;-66
2021/03/07 00:17:50;;;;;;;3.83;1.45;;;1.50;83.70;;;;;;4993797;28;20026;-66
2021/03/07 00:20:18;;;;;;;3.47;1.60;;;1.50;83.30;;;;;;5002192;28;20025;-66
2021/03/07 00:22:44;;;;;;;3.00;1.95;;;1.60;82.80;;;;;;5002175;28;20105;-66
2021/03/07 00:25:11;;;;;;;4.65;1.92;;;1.60;83.00;;;;;;4994987;28;20030;-66
2021/03/07 00:27:37;;;;;;;5.50;1.92;;;1.50;83.00;;;;;;5003121;28;20030;-67
2021/03/07 00:30:05;;;;;;;5.07;2.13;;;1.50;83.30;;;;;;5002298;28;20038;-67
2021/03/07 00:32:30;;;;;;;3.88;1.73;;;1.50;83.70;;;;;;5002526;28;20616;-67
2021/03/07 00:34:56;;;;;;;7.95;2.15;;;1.40;84.10;;;;;;5002537;28;20033;-66
2021/03/07 00:37:21;;;;;;;6.50;1.67;;;1.40;84.40;;;;;;5001550;28;20053;-67
2021/03/07 00:39:47;;;;;;;5.05;2.17;;;1.40;84.50;;;;;;5002162;28;20076;-67
2021/03/07 00:42:13;;;;;;;8.00;2.15;;;1.40;84.90;;;;;;5002201;28;20029;-67
2021/03/07 00:44:38;;;;;;;8.13;2.10;;;1.40;85.10;;;;;;4999168;28;20088;-67
2021/03/07 00:47:04;;;;;;;6.07;2.28;;;1.40;85.30;;;;;;5000896;28;20026;-66
2021/03/07 00:49:31;;;;;;;3.63;1.85;;;1.40;85.60;;;;;;4996955;28;20483;-69
2021/03/07 00:51:58;;;;;;;4.75;1.98;;;1.30;85.80;;;;;;5002560;28;20034;-67
2021/03/07 00:54:24;;;;;;;8.90;2.30;;;1.30;85.70;;;;;;4999553;28;20022;-69
2021/03/07 00:56:49;;;;;;;6.78;2.25;;;1.30;85.80;;;;;;4999513;28;20545;-66
2021/03/07 00:59:15;;;;;;;6.03;2.15;;;1.30;86.00;;;;;;4996527;28;20029;-66
2021/03/07 01:01:41;;;;;;;7.65;1.90;;;1.20;86.10;;;;;;5001624;28;20033;-67
2021/03/07 01:04:07;;;;;;;4.82;2.03;;;1.30;86.00;;;;;;5001591;28;20034;-66
2021/03/07 01:06:33;;;;;;;3.20;1.77;;;1.20;86.10;;;;;;4994559;28;20030;-65
2021/03/07 01:08:58;;;;;;;6.03;2.00;;;1.20;86.10;;;;;;4993956;28;20875;-66
2021/03/07 01:11:25;;;;;;;5.97;2.08;;;1.30;86.20;;;;;;4996390;28;20037;-65
2021/03/07 01:13:52;;;;;;;4.05;1.73;;;1.20;85.80;;;;;;4996378;28;20717;-66
2021/03/07 01:16:18;;;;;;;6.68;2.10;;;1.30;85.80;;;;;;4996309;28;20092;-67
2021/03/07 01:18:44;;;;;;;4.35;2.13;;;1.30;85.70;;;;;;4995895;28;20569;-67
2021/03/07 01:21:10;;;;;;;2.45;1.75;;;1.30;85.50;;;;;;5005703;28;20112;-67
2021/03/07 01:23:36;;;;;;;3.78;1.85;;;1.30;85.30;;;;;;5000742;28;20061;-67
2021/03/07 01:26:02;;;;;;;6.43;1.92;;;1.40;85.00;;;;;;4996928;28;20025;-65
2021/03/07 01:28:28;;;;;;;3.08;1.80;;;1.40;84.60;;;;;;5001840;28;20435;-65
2021/03/07 01:30:53;;;;;;;4.35;1.70;;;1.40;84.20;;;;;;5004017;28;20379;-66
2021/03/07 01:33:20;;;;;;;3.67;1.70;;;1.40;84.00;;;;;;5004912;28;20482;-66
2021/03/07 01:35:46;;;;;;;5.15;1.83;;;1.50;83.80;;;;;;5000566;28;20062;-66
2021/03/07 01:38:12;;;;;;;6.47;1.77;;;1.40;84.00;;;;;;5001755;28;20612;-67
2021/03/07 01:40:50;;;;;;;11.27;1.92;;;1.50;83.90;;;;;;5008326;28;20029;-66
2021/03/07 01:43:19;;;;;;;5.80;2.03;;;1.40;83.90;;;;;;5003786;28;20410;-66
2021/03/07 01:45:45;;;;;;;3.38;1.58;;;1.50;84.00;;;;;;5004490;28;20048;-66
2021/03/07 01:48:13;;;;;;;6.35;1.98;;;1.50;83.90;;;;;;5005399;28;20057;-66
2021/03/07 01:50:42;;;;;;;4.95;1.67;;;1.50;83.50;;;;;;5005926;28;20049;-67
2021/03/07 01:53:09;;;;;;;4.13;1.77;;;1.50;83.60;;;;;;5005167;28;20038;-65
2021/03/07 01:55:36;;;;;;;4.22;1.77;;;1.50;83.60;;;;;;5004954;28;20128;-67
2021/03/07 01:58:22;;;;;;;5.50;1.90;;;1.50;83.80;;;;;;4996755;28;20022;-68
2021/03/07 02:00:48;;;;;;;6.88;1.60;;;1.50;83.70;;;;;;5008014;28;20427;-67
2021/03/07 02:03:14;;;;;;;3.60;1.73;;;1.50;84.00;;;;;;5005921;28;20025;-68
2021/03/07 02:05:40;;;;;;;5.07;1.70;;;1.50;83.70;;;;;;5004584;28;20052;-66
2021/03/07 02:08:06;;;;;;;5.00;1.67;;;1.50;83.60;;;;;;4993730;28;20077;-66
2021/03/07 02:10:41;;;;;;;7.18;1.80;;;1.50;82.90;;;;;;5008282;28;20032;-66
2021/03/07 02:13:19;;;;;;;4.47;1.65;;;1.60;82.70;;;;;;4988341;28;20085;-66
2021/03/07 02:15:53;;;;;;;3.85;1.70;;;1.60;82.70;;;;;;5000463;28;20095;-67
2021/03/07 02:18:19;;;;;;;5.05;1.80;;;1.60;82.20;;;;;;5005525;28;20402;-68
2021/03/07 02:20:56;;;;;;;5.13;1.63;;;1.60;82.60;;;;;;5003116;28;20021;-66
2021/03/07 02:23:26;;;;;;;4.00;1.75;;;1.60;82.90;;;;;;5007486;28;20021;-66
2021/03/07 02:25:52;;;;;;;6.13;2.00;;;1.60;83.20;;;;;;5004130;28;20042;-67
2021/03/07 02:28:20;;;;;;;6.72;1.60;;;1.60;83.00;;;;;;5002752;28;20264;-66
2021/03/07 02:30:46;;;;;;;4.65;1.88;;;1.50;83.20;;;;;;5009358;28;20394;-67
2021/03/07 02:33:23;;;;;;;3.53;1.73;;;1.50;83.00;;;;;;5002233;28;20026;-68
2021/03/07 02:36:05;;;;;;;2.80;1.67;;;1.50;83.20;;;;;;5001452;28;20168;-66
2021/03/07 02:38:34;;;;;;;6.90;1.52;;;1.50;83.20;;;;;;5003810;28;20021;-67
2021/03/07 02:41:00;;;;;;;3.63;2.03;;;1.50;83.10;;;;;;4989404;28;20030;-66
2021/03/07 02:43:31;;;;;;;6.18;1.90;;;1.50;83.10;;;;;;5002003;28;20520;-66
2021/03/07 02:46:00;;;;;;;5.10;1.88;;;1.50;83.00;;;;;;5005783;28;20065;-66
2021/03/07 02:48:27;;;;;;;4.75;1.73;;;1.60;82.80;;;;;;4999669;28;20045;-67
2021/03/07 02:50:56;;;;;;;4.20;1.55;;;1.50;82.50;;;;;;5012101;28;20026;-66
2021/03/07 02:53:24;;;;;;;5.03;2.13;;;1.60;82.60;;;;;;4996077;28;20491;-67
2021/03/07 02:56:00;;;;;;;5.43;1.90;;;1.50;82.80;;;;;;4996265;28;20033;-66
2021/03/07 02:58:27;;;;;;;5.38;1.88;;;1.60;82.50;;;;;;5001377;28;20075;-68
2021/03/07 03:00:59;;;;;;;2.47;1.50;;;1.60;82.70;;;;;;5008331;28;20030;-67
2021/03/07 03:03:31;;;;;;;5.07;1.58;;;1.60;82.30;;;;;;5000555;28;20473;-66
2021/03/07 03:05:58;;;;;;;3.30;1.73;;;1.60;82.50;;;;;;5007442;28;20037;-66
2021/03/07 03:08:29;;;;;;;3.60;1.50;;;1.60;82.40;;;;;;4996987;28;20030;-67
2021/03/07 03:10:55;;;;;;;7.10;2.08;;;1.60;82.20;;;;;;5010166;28;20045;-67
2021/03/07 03:13:22;;;;;;;2.95;1.60;;;1.60;81.80;;;;;;4991927;28;20117;-66
2021/03/07 03:15:51;;;;;;;4.20;2.10;;;1.60;82.10;;;;;;5002344;28;20030;-66
2021/03/07 03:18:17;;;;;;;4.10;1.58;;;1.60;82.20;;;;;;5001425;28;20030;-66
2021/03/07 03:20:43;;;;;;;3.72;1.73;;;1.70;81.90;;;;;;5007833;28;20426;-69
2021/03/07 03:23:09;;;;;;;4.07;1.77;;;1.60;82.10;;;;;;5001283;28;20174;-67
2021/03/07 03:25:35;;;;;;;4.05;1.38;;;1.60;82.00;;;;;;5007947;28;20029;-66
2021/03/07 03:28:01;;;;;;;3.50;1.50;;;1.70;82.00;;;;;;4994318;28;20034;-66
2021/03/07 03:30:27;;;;;;;2.10;1.40;;;1.60;81.90;;;;;;5003551;28;20030;-66
2021/03/07 03:32:53;;;;;;;4.88;1.58;;;1.70;81.60;;;;;;4996226;28;20038;-65
2021/03/07 03:35:20;;;;;;;3.55;1.45;;;1.70;81.60;;;;;;5004131;28;20083;-66
2021/03/07 03:37:49;;;;;;;6.95;1.95;;;1.70;81.90;;;;;;4994959;28;20468;-68
2021/03/07 03:40:22;;;;;;;3.75;1.40;;;1.70;81.90;;;;;;5010119;28;20014;-67
2021/03/07 03:42:55;;;;;;;3.92;1.80;;;1.70;81.80;;;;;;5004978;28;20034;-67
2021/03/07 03:45:21;;;;;;;4.40;1.67;;;1.60;82.00;;;;;;5001343;28;20159;-69
2021/03/07 03:47:53;;;;;;;2.97;1.63;;;1.60;82.00;;;;;;4998627;28;20040;-67
2021/03/07 03:50:19;;;;;;;5.63;1.63;;;1.70;82.00;;;;;;5005037;28;20503;-67
2021/03/07 03:52:48;;;;;;;5.65;1.98;;;1.70;82.20;;;;;;4994241;28;20407;-67
2021/03/07 03:55:21;;;;;;;3.95;2.10;;;1.60;82.20;;;;;;5002695;28;20410;-67
2021/03/07 03:57:51;;;;;;;5.40;1.98;;;1.60;82.20;;;;;;5001048;28;20038;-68
2021/03/07 04:00:21;;;;;;;4.78;1.77;;;1.60;82.30;;;;;;5004667;28;20084;-66
2021/03/07 04:02:47;;;;;;;4.60;1.95;;;1.60;82.00;;;;;;5002135;28;20029;-67
2021/03/07 04:05:17;;;;;;;10.65;2.30;;;1.70;81.90;;;;;;5006435;28;20037;-68
2021/03/07 04:07:45;;;;;;;6.78;1.92;;;1.70;82.00;;;;;;4999956;28;20065;-68
2021/03/07 04:10:12;;;;;;;7.60;2.03;;;1.60;82.00;;;;;;5002192;28;20426;-67
2021/03/07 04:12:39;;;;;;;9.10;2.05;;;1.70;81.70;;;;;;4991216;28;20030;-66
2021/03/07 04:15:07;;;;;;;3.33;1.75;;;1.70;81.80;;;;;;4992154;28;20029;-66
2021/03/07 04:17:34;;;;;;;4.35;1.88;;;1.60;81.80;;;;;;4995881;28;20027;-67
2021/03/07 04:20:01;;;;;;;6.85;2.17;;;1.70;81.60;;;;;;4998825;28;20486;-67
2021/03/07 04:22:27;;;;;;;4.03;2.17;;;1.60;81.70;;;;;;5005359;28;20033;-66
2021/03/07 04:24:53;;;;;;;7.45;2.35;;;1.70;81.70;;;;;;5001395;28;20360;-67
2021/03/07 04:27:19;;;;;;;2.70;1.67;;;1.70;81.90;;;;;;5006619;28;20107;-67
2021/03/07 04:29:45;;;;;;;2.97;1.88;;;1.60;81.90;;;;;;5006411;28;20306;-67
2021/03/07 04:32:11;;;;;;;4.13;2.20;;;1.60;81.90;;;;;;4998164;28;20218;-67
2021/03/07 04:34:37;;;;;;;6.07;2.20;;;1.60;81.90;;;;;;5001494;28;20038;-66
2021/03/07 04:37:04;;;;;;;5.82;2.30;;;1.60;81.70;;;;;;5001321;28;20080;-66
2021/03/07 04:39:31;;;;;;;5.82;2.10;;;1.60;82.00;;;;;;5000272;28;21692;-67
2021/03/07 04:41:57;;;;;;;4.90;2.22;;;1.60;81.80;;;;;;5001083;28;20338;-67
2021/03/07 04:44:23;;;;;;;4.20;2.00;;;1.60;81.70;;;;;;4996561;28;20042;-68
2021/03/07 04:46:48;;;;;;;4.72;1.90;;;1.70;82.00;;;;;;5000902;28;20072;-67
2021/03/07 04:49:14;;;;;;;5.97;2.38;;;1.70;81.10;;;;;;4995646;28;20026;-66
2021/03/07 04:51:39;;;;;;;5.57;2.10;;;1.70;81.50;;;;;;5001707;28;20053;-69
2021/03/07 04:54:05;;;;;;;5.15;1.80;;;1.70;81.20;;;;;;4991615;28;20030;-66
2021/03/07 04:56:31;;;;;;;5.65;2.13;;;1.70;81.20;;;;;;4998145;28;20505;-67
2021/03/07 04:58:57;;;;;;;4.07;1.70;;;1.70;81.10;;;;;;4999484;28;20069;-66
2021/03/07 05:01:23;;;;;;;3.03;1.88;;;1.70;81.00;;;;;;5003095;28;20398;-67
2021/03/07 05:03:52;;;;;;;4.70;2.47;;;1.70;81.10;;;;;;4998238;28;20026;-67
2021/03/07 05:06:18;;;;;;;3.88;1.98;;;1.70;81.50;;;;;;4998241;28;20504;-67
2021/03/07 05:08:44;;;;;;;5.00;1.90;;;1.70;81.30;;;;;;4999518;28;20030;-67
2021/03/07 05:11:10;;;;;;;5.22;2.40;;;1.70;81.40;;;;;;5002234;28;20728;-66
2021/03/07 05:13:35;;;;;;;4.93;2.15;;;1.70;81.40;;;;;;4988745;28;20026;-68
2021/03/07 05:16:01;;;;;;;4.35;2.15;;;1.70;81.30;;;;;;4999248;28;20034;-67
2021/03/07 05:18:27;;;;;;;4.85;2.40;;;1.70;81.30;;;;;;4989722;28;20108;-66
2021/03/07 05:20:52;;;;;;;5.78;2.22;;;1.70;81.50;;;;;;5007650;28;20116;-67
2021/03/07 05:23:18;;;;;;;4.55;2.38;;;1.70;81.40;;;;;;4997964;28;20018;-67
2021/03/07 05:25:43;;;;;;;5.28;2.40;;;1.70;81.50;;;;;;5000386;28;20030;-66
2021/03/07 05:28:09;;;;;;;10.15;2.50;;;1.70;81.40;;;;;;4994693;28;20034;-68
2021/03/07 05:30:36;;;;;;;6.07;2.40;;;1.70;81.40;;;;;;5001479;28;20096;-69
2021/03/07 05:33:02;;;;;;;4.70;2.40;;;1.70;81.60;;;;;;4996161;28;20062;-66
2021/03/07 05:35:28;;;;;;;6.88;2.65;;;1.80;81.30;;;;;;5000309;28;20049;-66
2021/03/07 05:37:53;;;;;;;5.70;2.50;;;1.80;81.20;;;;;;5001453;28;20077;-66
2021/03/07 05:40:19;;;;;;;5.13;2.17;;;1.80;81.40;;;;;;5002583;28;20041;-68
2021/03/07 05:42:45;;;;;;;4.82;2.38;;;1.80;81.20;;;;;;5000040;28;20028;-66
2021/03/07 05:45:11;;;;;;;5.47;2.65;;;1.80;81.00;;;;;;4991460;28;20499;-66
2021/03/07 05:47:37;;;;;;;5.32;2.45;;;1.80;81.00;;;;;;4997871;28;20046;-67
2021/03/07 05:50:05;;;;;;;5.03;2.30;;;1.80;81.00;;;;;;4995207;28;20036;-67
2021/03/07 05:52:31;;;;;;;4.78;2.28;;;1.80;81.10;;;;;;4995877;28;20487;-67
2021/03/07 05:54:57;;;;;;;5.05;2.45;;;1.80;81.10;;;;;;5002244;28;20030;-66
2021/03/07 05:57:23;;;;;;;6.28;2.58;;;1.80;81.20;;;;;;4999567;28;20037;-66
2021/03/07 05:59:50;;;;;;;8.25;2.67;;;1.90;81.20;;;;;;4993488;28;20093;-67
2021/03/07 06:02:17;;;;;;;4.80;2.45;;;1.90;81.10;;;;;;4999795;28;20109;-66
2021/03/07 06:04:43;;;;;;;6.78;2.20;;;1.80;81.10;;;;;;5001972;28;20074;-70
2021/03/07 06:07:10;;;;;;;8.00;2.78;;;1.90;81.20;;;;;;5004313;28;20277;-67
2021/03/07 06:09:36;;;;;;;5.57;2.50;;;1.80;81.40;;;;;;4998477;28;20062;-67
2021/03/07 06:12:05;;;;;;;4.85;2.20;;;1.80;81.30;;;;;;5000603;28;20108;-67
2021/03/07 06:14:33;;;;;;;5.28;2.60;;;1.80;81.40;;;;;;4999958;28;20029;-67
2021/03/07 06:17:13;;;;;;;5.70;2.67;;;1.90;81.10;;;;;;5009099;28;20030;-66
2021/03/07 06:19:59;;;;;;;8.48;2.17;;;1.90;81.00;;;;;;5000381;28;20488;-69
2021/03/07 06:22:26;;;;;;;5.63;2.60;;;1.90;80.70;;;;;;5007938;28;20030;-66
2021/03/07 06:24:52;;;;;;;3.20;2.20;;;1.90;81.10;;;;;;5007440;28;20414;-69
2021/03/07 06:27:18;;;;;;;5.93;2.42;;;2.00;80.90;;;;;;4998470;28;20033;-66
2021/03/07 06:30:01;;;;;;;5.18;2.50;;;1.90;80.80;;;;;;5001131;28;20252;-69
2021/03/07 06:32:29;;;;;;;5.63;2.58;;;2.00;81.00;;;;;;5001310;28;20452;-68
2021/03/07 06:34:55;;;;;;;4.55;2.17;;;2.00;80.90;;;;;;4998077;28;20045;-66
2021/03/07 06:37:21;;;;;;;5.82;2.60;;;2.00;80.70;;;;;;4997179;28;20030;-67
2021/03/07 06:39:47;;;;;;;5.18;2.45;;;2.00;80.60;;;;;;4998937;28;20025;-67
2021/03/07 06:42:13;;;;;;;7.75;3.15;;;2.10;80.80;;;;;;4996629;28;20030;-67
2021/03/07 06:44:57;;;;;;;6.05;2.70;;;2.10;80.80;;;;;;5005267;28;20040;-67
2021/03/07 06:47:24;;;;;;;4.93;2.72;;;2.10;80.90;;;;;;5001986;28;20057;-68
2021/03/07 06:50:14;;;;;;;3.47;2.13;;;2.10;80.80;;;;;;5003404;28;20548;-68
2021/03/07 06:52:55;;;;;;;7.70;2.60;;;2.10;80.90;;;;;;5006528;28;20037;-67
2021/03/07 06:55:42;;;;;;;6.63;3.00;;;2.10;80.80;;;;;;4998597;28;20034;-67
2021/03/07 06:58:17;;;;;;;5.80;2.50;;;2.10;80.80;;;;;;5000511;28;20019;-67
2021/03/07 07:00:43;;;;;;;5.88;2.63;;;2.10;80.70;;;;;;4993318;28;20026;-68
2021/03/07 07:03:14;;;;;;;5.57;2.83;;;2.10;81.00;;;;;;5006604;28;20133;-67
2021/03/07 07:05:42;;;;;;;4.75;2.33;;;2.20;81.00;;;;;;5004352;28;20057;-68
2021/03/07 07:08:10;;;;;;;4.82;2.50;;;2.10;81.00;;;;;;5006809;28;20037;-67
2021/03/07 07:10:51;;;;;;;3.35;1.98;;;2.20;81.10;;;;;;5013573;28;20026;-67
2021/03/07 07:13:22;;;;;;;6.55;2.90;;;2.10;81.20;;;;;;4998762;28;20022;-67
2021/03/07 07:16:03;;;;;;;7.40;2.55;;;2.20;81.50;;;;;;5006158;28;20057;-66
2021/03/07 07:18:36;;;;;;;6.15;2.58;;;2.20;81.50;;;;;;4998856;28;20022;-66
2021/03/07 07:21:05;;;;;;;4.47;2.53;;;2.20;81.50;;;;;;5001162;28;20125;-67
2021/03/07 07:23:31;;;;;;;6.88;2.92;;;2.20;81.60;;;;;;4999979;28;20025;-66
2021/03/07 07:25:57;;;;;;;6.78;2.80;;;2.20;81.70;;;;;;5003879;28;20562;-67
2021/03/07 07:28:24;;;;;;;6.40;2.92;;;2.20;81.70;;;;;;5002764;28;20048;-66
2021/03/07 07:31:11;;;;;;;5.13;2.53;;;2.20;81.80;;;;;;5004889;28;20092;-67
2021/03/07 07:34:02;;;;;;;4.72;2.85;;;2.20;81.60;;;;;;4995072;28;20113;-67
2021/03/07 07:36:47;;;;;;;6.10;2.70;;;2.30;81.90;;;;;;5003606;28;20113;-69
2021/03/07 07:39:15;;;;;;;5.30;2.90;;;2.30;81.60;;;;;;5000416;28;20292;-68
2021/03/07 07:41:41;;;;;;;9.93;2.78;;;2.40;81.70;;;;;;5000650;28;20065;-67
2021/03/07 07:44:09;;;;;;;6.90;3.00;;;2.40;81.60;;;;;;5004056;28;20514;-67
2021/03/07 07:46:58;;;;;;;7.82;2.72;;;2.40;81.70;;;;;;5001284;28;20061;-68
2021/03/07 07:49:40;;;;;;;9.05;2.45;;;2.50;81.40;;;;;;4995274;28;20014;-67
2021/03/07 07:52:23;;;;;;;6.65;3.03;;;2.50;81.30;;;;;;5004321;28;20029;-67
2021/03/07 07:55:09;;;;;;;9.38;2.90;;;2.60;81.80;;;;;;5006178;28;20533;-67
2021/03/07 07:57:40;;;;;;;5.88;3.15;;;2.60;81.70;;;;;;5002147;28;20022;-67
2021/03/07 08:00:08;;;;;;;;;;;2.60;81.50;;;;;;5006415;28;20028;-66
2021/03/07 08:02:46;;;;;;;6.35;2.80;;;2.60;81.50;;;;;;5003538;28;20433;-67
2021/03/07 08:05:21;;;;;;;10.05;2.83;;;2.60;81.70;;;;;;5003518;28;20034;-67
2021/03/07 08:07:57;;;;;;;6.13;3.35;;;2.60;81.90;;;;;;4989063;28;20105;-66
2021/03/07 08:10:46;;;;;;;6.97;3.05;;;2.60;81.60;;;;;;5001021;28;20112;-68
2021/03/07 08:13:35;;;;;;;5.88;2.70;;;2.70;81.50;;;;;;4999110;28;20037;-67
2021/03/07 08:16:05;;;;;;;8.57;3.28;;;2.70;81.40;;;;;;5007281;28;20030;-66
2021/03/07 08:18:56;;;;;;;6.13;3.28;;;2.80;81.20;;;;;;5003653;28;20064;-68
2021/03/07 08:21:23;;;;;;;5.05;2.88;;;2.70;81.00;;;;;;4999871;28;20549;-68
2021/03/07 08:23:57;;;;;;;7.00;3.13;;;2.80;80.80;;;;;;4995507;28;20729;-67
2021/03/07 08:26:42;;;;;;;4.95;2.70;;;2.80;80.60;;;;;;5000441;28;20586;-67
2021/03/07 08:29:37;;;;;;;6.40;3.15;;;2.90;81.10;;;;;;4999023;28;20033;-67
2021/03/07 08:32:36;;;;;;;7.07;3.00;;;2.90;80.80;;;;;;4995975;28;20467;-67
2021/03/07 08:35:24;;;;;;;7.18;3.63;;;2.90;80.90;;;;;;5004887;28;20326;-67
2021/03/07 08:38:13;;;;;;;6.85;3.28;;;3.00;80.80;;;;;;4997676;28;20340;-67
2021/03/07 08:40:40;;;;;;;6.20;3.33;;;2.90;80.20;;;;;;5002047;28;20557;-67
2021/03/07 08:43:28;;;;;;;7.57;3.25;;;3.00;80.40;;;;;;4996065;28;20025;-66
2021/03/07 08:46:10;;;;;;;8.73;3.50;;;3.10;80.40;;;;;;4981681;28;20088;-66
2021/03/07 08:48:37;;;;;;;10.00;3.58;;;3.10;80.10;;;;;;4990168;28;20022;-67
2021/03/07 08:51:04;;;;;;;6.28;3.80;;;3.20;80.00;;;;;;4999739;28;20034;-68
2021/03/07 08:53:32;;;;;;;6.38;2.95;;;3.30;79.70;;;;;;5000991;28;20513;-67
2021/03/07 08:55:58;;;;;;;8.57;3.40;;;3.20;79.30;;;;;;5001233;28;20038;-67
2021/03/07 08:58:24;;;;;;;7.88;3.47;;;3.30;79.20;;;;;;4993320;28;20026;-67
2021/03/07 09:00:53;;;;;;;8.32;3.60;;;3.40;79.10;;;;;;5002476;28;20041;-68
2021/03/07 09:03:20;;;;;;;11.10;3.95;;;3.50;78.80;;;;;;4997881;28;20084;-67
2021/03/07 09:05:46;;;;;;;7.25;3.85;;;3.40;78.30;;;;;;4999071;28;20026;-66
2021/03/07 09:08:13;;;;;;;10.88;3.80;;;3.40;78.30;;;;;;4992263;28;20030;-69
2021/03/07 09:10:44;;;;;;;8.60;3.42;;;3.40;78.20;;;;;;4993353;28;20022;-67
2021/03/07 09:13:18;;;;;;;11.55;4.03;;;3.40;78.60;;;;;;4993239;28;20045;-68
2021/03/07 09:16:02;;;;;;;6.07;3.42;;;3.50;78.20;;;;;;5000783;28;20056;-67
2021/03/07 09:18:35;;;;;;;9.35;3.38;;;3.30;78.10;;;;;;4996017;28;20145;-66
2021/03/07 09:21:07;;;;;;;10.70;4.07;;;3.40;78.00;;;;;;5004144;28;20487;-66
2021/03/07 09:23:36;;;;;;;;;;;3.40;78.10;;;;;;4996285;28;20116;-67
2021/03/07 09:26:09;;;;;;;7.07;3.58;;;3.30;78.20;;;;;;5005959;28;19914;-67
2021/03/07 09:28:54;;;;;;;5.35;3.13;;;3.40;78.40;;;;;;4996129;28;20061;-67
2021/03/07 09:31:34;;;;;;;7.95;3.90;;;3.40;78.20;;;;;;5003589;28;20422;-67
2021/03/07 09:34:05;;;;;;;9.00;4.32;;;3.40;77.80;;;;;;4995791;28;20026;-66
2021/03/07 09:36:36;;;;;;;6.65;4.00;;;3.50;78.10;;;;;;4992819;28;20027;-67
2021/03/07 09:39:07;;;;;;;6.30;3.60;;;3.40;77.80;;;;;;4994569;28;20513;-67
2021/03/07 09:41:37;;;;;;;6.32;3.65;;;3.40;77.90;;;;;;5004564;28;20057;-67
2021/03/07 09:44:04;;;;;;;11.25;3.88;;;3.30;77.80;;;;;;5001510;28;20026;-67
2021/03/07 09:46:31;;;;;;;6.05;3.17;;;3.40;78.10;;;;;;5002916;28;20058;-67
2021/03/07 09:49:01;;;;;;;8.43;3.72;;;3.50;78.10;;;;;;4999367;28;20030;-67
2021/03/07 09:51:29;;;;;;;8.23;3.63;;;3.70;77.20;;;;;;4998161;28;20054;-66
2021/03/07 09:53:56;;;;;;;8.27;3.90;;;3.80;76.30;;;;;;4997510;28;20301;-67
2021/03/07 09:56:30;;;;;;;11.25;4.05;;;4.10;76.70;;;;;;4997811;28;20513;-68
2021/03/07 09:59:09;;;;;;;8.23;3.63;;;4.20;76.20;;;;;;4998069;28;20038;-67
2021/03/07 10:02:05;;;;;;;8.90;4.07;;;4.40;75.80;;;;;;4998314;28;20030;-66
2021/03/07 10:04:42;;;;;;;9.88;3.63;;;4.70;75.10;;;;;;4997904;28;20510;-68
2021/03/07 10:07:17;;;;;;;6.38;3.22;;;4.60;73.80;;;;;;4999454;28;20495;-68
2021/03/07 10:10:08;;;;;;;7.60;3.22;;;4.60;73.20;;;;;;5001580;28;20088;-67
2021/03/07 10:12:56;;;;;;;6.15;3.10;;;4.70;72.90;;;;;;4999716;28;20037;-67
2021/03/07 10:15:30;;;;;;;9.43;3.40;;;4.80;72.10;;;;;;4986870;28;20093;-68
2021/03/07 10:18:16;;;;;;;9.05;3.33;;;4.70;72.40;;;;;;4975110;28;20038;-66
2021/03/07 10:20:55;;;;;;;9.07;3.35;;;4.80;72.00;;;;;;4980473;28;20652;-67
2021/03/07 10:23:26;;;;;;;6.75;3.40;;;4.80;72.00;;;;;;4981986;28;20507;-66
2021/03/07 10:25:52;;;;;;;11.07;3.60;;;4.80;72.10;;;;;;4973438;28;20484;-68
2021/03/07 10:28:26;;;;;;;5.60;2.65;;;5.10;72.30;;;;;;4986127;28;20045;-68
2021/03/07 10:30:53;;;;;;;6.53;2.85;;;5.10;71.70;;;;;;4982942;28;20511;-66
2021/03/07 10:33:26;;;;;;;10.35;3.42;;;5.00;71.20;;;;;;4972044;28;20049;-67
2021/03/07 10:36:15;;;;;;;9.23;3.90;;;5.20;71.10;;;;;;4982632;28;20034;-66
2021/03/07 10:39:08;;;;;;;8.00;3.45;;;5.20;71.40;;;;;;4980933;28;20027;-66
2021/03/07 10:41:33;;;;;;;6.45;3.17;;;5.30;70.70;;;;;;4985154;28;20487;-66
2021/03/07 10:44:05;;;;;;;6.57;3.00;;;5.70;69.60;;;;;;4983035;28;20026;-67
2021/03/07 10:46:36;;;;;;;10.20;3.60;;;5.80;69.60;;;;;;4977475;28;20082;-67
2021/03/07 10:49:07;;;;;;;7.75;3.00;;;5.80;69.30;;;;;;4984239;28;20033;-66
2021/03/07 10:51:33;;;;;;;5.97;3.47;;;5.80;68.10;;;;;;4980286;28;20089;-67
2021/03/07 10:53:59;;;;;;;6.47;2.83;;;6.00;67.80;;;;;;4979368;28;20037;-66
2021/03/07 10:56:29;;;;;;;5.18;2.72;;;5.80;68.10;;;;;;4988840;28;20128;-66
2021/03/07 10:58:55;;;;;;;8.38;3.10;;;5.70;67.50;;;;;;4983224;28;20081;-66
2021/03/07 11:01:21;;;;;;;5.90;2.90;;;6.10;67.10;;;;;;4979370;28;20100;-65
2021/03/07 11:03:46;;;;;;;10.07;4.65;;;6.00;67.00;;;;;;4984133;28;20475;-66
2021/03/07 11:06:12;;;;;;;12.27;3.95;;;5.80;67.50;;;;;;4973798;28;20026;-68
2021/03/07 11:08:38;;;;;;;8.63;4.18;;;6.10;66.80;;;;;;4981367;28;20285;-66
2021/03/07 11:11:04;;;;;;;6.70;3.30;;;5.60;66.10;;;;;;4977010;28;20106;-68
2021/03/07 11:13:31;;;;;;;6.90;2.80;;;5.50;67.00;;;;;;4980228;28;20347;-66
2021/03/07 11:15:56;;;;;;;8.38;3.17;;;5.50;67.40;;;;;;4983895;28;20074;-67
2021/03/07 11:18:22;;;;;;;8.75;3.10;;;5.70;67.10;;;;;;4978331;28;20062;-67
2021/03/07 11:20:48;;;;;;;5.20;3.08;;;6.00;67.00;;;;;;4983681;28;20029;-66
2021/03/07 11:23:15;;;;;;;9.13;3.53;;;5.90;66.80;;;;;;4981004;28;20030;-66
2021/03/07 11:25:40;;;;;;;8.23;3.15;;;5.90;66.10;;;;;;4982922;28;20027;-67
2021/03/07 11:28:06;;;;;;;7.32;3.08;;;5.50;66.90;;;;;;4977166;28;20029;-67
2021/03/07 11:30:32;;;;;;;7.75;3.20;;;5.60;66.80;;;;;;4977522;28;20045;-67
2021/03/07 11:32:59;;;;;;;10.02;3.63;;;5.70;67.60;;;;;;4979504;28;20077;-66
2021/03/07 11:35:24;;;;;;;8.82;3.70;;;5.70;67.60;;;;;;4971710;28;20656;-67
2021/03/07 11:37:57;;;;;;;8.30;4.63;;;5.60;67.40;;;;;;4978499;28;20093;-69
2021/03/07 11:40:22;;;;;;;8.05;4.13;;;5.30;68.00;;;;;;4979129;28;20031;-68
2021/03/07 11:42:48;;;;;;;12.20;4.10;;;5.40;68.40;;;;;;4981993;28;20532;-66
2021/03/07 11:45:14;;;;;;;8.13;3.67;;;5.40;68.90;;;;;;4978448;28;20022;-66
2021/03/07 11:47:40;;;;;;;6.07;3.40;;;5.40;69.10;;;;;;4976802;28;20089;-69
2021/03/07 11:50:06;;;;;;;8.30;3.30;;;5.30;68.90;;;;;;4981109;28;20027;-67
2021/03/07 11:52:32;;;;;;;9.68;5.20;;;5.30;69.20;;;;;;4974083;28;20058;-67
2021/03/07 11:54:57;;;;;;;9.90;4.65;;;5.50;69.60;;;;;;4974379;28;20035;-66
2021/03/07 11:57:23;;;;;;;7.78;4.30;;;5.20;69.10;;;;;;4977036;28;20122;-67
2021/03/07 11:59:49;;;;;;;9.55;4.47;;;5.30;68.90;;;;;;4982461;28;20049;-66
2021/03/07 12:02:14;;;;;;;8.07;4.40;;;5.20;68.90;;;;;;4982155;28;20057;-68
2021/03/07 12:04:40;;;;;;;11.73;5.57;;;5.30;69.50;;;;;;4980391;28;20026;-66
2021/03/07 12:07:05;;;;;;;14.55;6.10;;;5.40;70.00;;;;;;4980060;28;20041;-66
2021/03/07 12:09:31;;;;;;;8.70;4.72;;;5.10;69.30;;;;;;4968528;28;20499;-66
2021/03/07 12:11:57;;;;;;;8.50;4.68;;;5.00;69.40;;;;;;4975973;28;20089;-67
2021/03/07 12:14:23;;;;;;;10.63;4.80;;;5.10;69.50;;;;;;4971070;28;20054;-66
2021/03/07 12:16:48;;;;;;;8.75;5.32;;;5.10;70.10;;;;;;4977241;28;20109;-67
2021/03/07 12:19:14;;;;;;;11.40;6.20;;;5.10;70.10;;;;;;4977512;28;20037;-67
2021/03/07 12:21:40;;;;;;;11.63;5.60;;;5.00;70.10;;;;;;4978277;28;20450;-67
2021/03/07 12:24:06;;;;;;;10.45;5.65;;;5.00;69.80;;;;;;4976238;28;20022;-66
2021/03/07 12:26:32;;;;;;;8.25;4.75;;;5.00;70.20;;;;;;4967523;28;20415;-67
2021/03/07 12:28:57;;;;;;;10.80;4.82;;;5.00;70.30;;;;;;4981854;28;20092;-67
2021/03/07 12:31:23;;;;;;;10.48;5.70;;;5.00;70.50;;;;;;4985999;28;20026;-67
2021/03/07 12:33:49;;;;;;;9.60;5.65;;;5.10;70.70;;;;;;4976575;28;20176;-66
2021/03/07 12:36:15;;;;;;;11.52;5.70;;;5.00;71.20;;;;;;4982919;28;20113;-68
2021/03/07 12:38:40;;;;;;;12.50;5.35;;;5.10;71.00;;;;;;4976126;28;20228;-67
2021/03/07 12:41:06;;;;;;;13.77;5.63;;;5.10;70.80;;;;;;4982861;28;20030;-66
2021/03/07 12:43:32;;;;;;;11.63;5.78;;;5.20;70.80;;;;;;4972746;28;20373;-67
2021/03/07 12:45:58;;;;;;;15.07;6.07;;;5.20;70.90;;;;;;4985276;28;20030;-67
2021/03/07 12:48:23;;;;;;;9.68;5.47;;;5.30;71.20;;;;;;4976296;28;20400;-66
2021/03/07 12:50:49;;;;;;;9.43;5.93;;;5.20;71.10;;;;;;4975274;28;20113;-68
2021/03/07 12:53:15;;;;;;;9.52;5.85;;;5.10;71.50;;;;;;4976687;28;20042;-66
2021/03/07 12:55:40;;;;;;;13.90;7.10;;;5.00;71.40;;;;;;4980646;28;20034;-68
2021/03/07 12:58:06;;;;;;;12.38;6.40;;;5.00;71.60;;;;;;4971720;28;20081;-67
2021/03/07 13:00:31;;;;;;;12.70;6.82;;;5.10;72.00;;;;;;4982322;28;20062;-67
2021/03/07 13:02:57;;;;;;;11.70;6.20;;;5.10;72.20;;;;;;4961838;28;20026;-67
2021/03/07 13:05:22;;;;;;;12.65;6.65;;;5.10;72.10;;;;;;4979444;28;20034;-66
2021/03/07 13:07:48;;;;;;;11.98;6.70;;;5.00;71.90;;;;;;4976070;28;20037;-66